sensor_id;sensor_type;location;lat;lon;timestamp;temperature;humidity
41547;DHT22;27271;45.412;10.852;2023-03-30T00:03:05;9.70;99.90
41547;DHT22;27271;45.412;10.852;2023-03-30T00:06:28;9.60;1.00
41547;DHT22;27271;45.412;10.852;2023-03-30T00:09:50;9.60;1.00
41547;DHT22;27271;45.412;10.852;2023-03-30T00:13:15;9.60;1.00
41547;DHT22;27271;45.412;10.852;2023-03-30T00:16:37;9.60;1.00
41547;DHT22;27271;45.412;10.852;2023-03-30T00:19:59;9.70;1.00
41547;DHT22;27271;45.412;10.852;2023-03-30T00:23:32;9.60;1.00
41547;DHT22;27271;45.412;10.852;2023-03-30T00:26:55;9.60;1.00
41547;DHT22;27271;45.412;10.852;2023-03-30T00:30:18;9.60;1.00
41547;DHT22;27271;45.412;10.852;2023-03-30T00:33:40;9.60;1.00
41547;DHT22;27271;45.412;10.852;2023-03-30T00:37:08;9.70;1.00
41547;DHT22;27271;45.412;10.852;2023-03-30T00:40:32;9.50;1.00
41547;DHT22;27271;45.412;10.852;2023-03-30T00:44:04;9.40;1.00
41547;DHT22;27271;45.412;10.852;2023-03-30T00:47:27;9.40;1.00
41547;DHT22;27271;45.412;10.852;2023-03-30T00:51:15;9.30;30.10
41547;DHT22;27271;45.412;10.852;2023-03-30T00:54:38;9.30;25.50
41547;DHT22;27271;45.412;10.852;2023-03-30T00:58:01;9.40;9.30
41547;DHT22;27271;45.412;10.852;2023-03-30T01:01:23;9.40;1.00
41547;DHT22;27271;45.412;10.852;2023-03-30T01:04:53;9.40;30.00
41547;DHT22;27271;45.412;10.852;2023-03-30T01:08:20;9.40;34.90
41547;DHT22;27271;45.412;10.852;2023-03-30T01:11:45;9.30;99.90
41547;DHT22;27271;45.412;10.852;2023-03-30T01:15:07;9.30;99.90
41547;DHT22;27271;45.412;10.852;2023-03-30T01:59:01;9.20;1.00
41547;DHT22;27271;45.412;10.852;2023-03-30T02:02:28;9.10;1.00
41547;DHT22;27271;45.412;10.852;2023-03-30T02:05:56;9.10;1.00
41547;DHT22;27271;45.412;10.852;2023-03-30T02:09:21;9.10;1.00
41547;DHT22;27271;45.412;10.852;2023-03-30T02:12:47;9.10;1.00
41547;DHT22;27271;45.412;10.852;2023-03-30T02:16:20;9.10;1.00
41547;DHT22;27271;45.412;10.852;2023-03-30T02:19:47;8.90;1.00
41547;DHT22;27271;45.412;10.852;2023-03-30T02:23:10;9.00;1.20
41547;DHT22;27271;45.412;10.852;2023-03-30T02:26:33;9.00;11.60
41547;DHT22;27271;45.412;10.852;2023-03-30T02:29:57;8.90;99.90
41547;DHT22;27271;45.412;10.852;2023-03-30T02:51:46;8.60;99.90
41547;DHT22;27271;45.412;10.852;2023-03-30T02:55:33;8.60;99.90
41547;DHT22;27271;45.412;10.852;2023-03-30T02:59:13;8.50;99.90
41547;DHT22;27271;45.412;10.852;2023-03-30T03:02:47;8.40;99.90
41547;DHT22;27271;45.412;10.852;2023-03-30T03:06:18;8.30;99.90
41547;DHT22;27271;45.412;10.852;2023-03-30T03:09:46;8.30;99.90
41547;DHT22;27271;45.412;10.852;2023-03-30T03:13:08;8.20;99.90
41547;DHT22;27271;45.412;10.852;2023-03-30T03:16:35;8.10;99.90
41547;DHT22;27271;45.412;10.852;2023-03-30T03:20:08;8.00;99.90
41547;DHT22;27271;45.412;10.852;2023-03-30T03:23:31;7.90;1.00
41547;DHT22;27271;45.412;10.852;2023-03-30T03:26:55;7.80;1.00
41547;DHT22;27271;45.412;10.852;2023-03-30T03:30:18;7.70;1.00
41547;DHT22;27271;45.412;10.852;2023-03-30T03:33:50;7.70;1.00
41547;DHT22;27271;45.412;10.852;2023-03-30T03:37:23;7.70;1.00
41547;DHT22;27271;45.412;10.852;2023-03-30T03:40:52;7.60;1.00
41547;DHT22;27271;45.412;10.852;2023-03-30T03:44:15;7.60;1.00
41547;DHT22;27271;45.412;10.852;2023-03-30T03:47:37;7.60;1.00
41547;DHT22;27271;45.412;10.852;2023-03-30T03:50:59;7.50;1.00
41547;DHT22;27271;45.412;10.852;2023-03-30T03:54:25;7.60;1.00
41547;DHT22;27271;45.412;10.852;2023-03-30T03:57:47;7.60;1.00
41547;DHT22;27271;45.412;10.852;2023-03-30T04:01:09;7.60;1.00
41547;DHT22;27271;45.412;10.852;2023-03-30T04:04:35;7.50;1.00
41547;DHT22;27271;45.412;10.852;2023-03-30T04:07:57;7.50;1.00
41547;DHT22;27271;45.412;10.852;2023-03-30T04:11:19;7.60;1.00
41547;DHT22;27271;45.412;10.852;2023-03-30T04:15:00;7.70;1.00
41547;DHT22;27271;45.412;10.852;2023-03-30T04:18:55;7.90;1.00
41547;DHT22;27271;45.412;10.852;2023-03-30T04:22:41;8.00;1.00
41547;DHT22;27271;45.412;10.852;2023-03-30T04:26:39;8.20;1.00
41547;DHT22;27271;45.412;10.852;2023-03-30T04:30:28;8.30;1.00
41547;DHT22;27271;45.412;10.852;2023-03-30T04:34:17;8.40;99.90
41547;DHT22;27271;45.412;10.852;2023-03-30T04:37:58;8.60;99.90
41547;DHT22;27271;45.412;10.852;2023-03-30T04:41:31;8.70;99.90
41547;DHT22;27271;45.412;10.852;2023-03-30T04:45:19;8.80;99.90
41547;DHT22;27271;45.412;10.852;2023-03-30T04:49:20;8.80;99.90
41547;DHT22;27271;45.412;10.852;2023-03-30T04:53:16;8.90;99.90
41547;DHT22;27271;45.412;10.852;2023-03-30T04:57:00;8.90;99.90
41547;DHT22;27271;45.412;10.852;2023-03-30T05:00:33;8.90;99.90
41547;DHT22;27271;45.412;10.852;2023-03-30T05:04:13;9.00;99.90
41547;DHT22;27271;45.412;10.852;2023-03-30T05:07:56;9.00;99.90
41547;DHT22;27271;45.412;10.852;2023-03-30T05:11:48;9.00;99.90
41547;DHT22;27271;45.412;10.852;2023-03-30T05:15:36;9.10;99.90
41547;DHT22;27271;45.412;10.852;2023-03-30T05:19:21;9.10;99.90
41547;DHT22;27271;45.412;10.852;2023-03-30T05:23:14;9.10;99.90
41547;DHT22;27271;45.412;10.852;2023-03-30T05:27:00;9.10;99.90
41547;DHT22;27271;45.412;10.852;2023-03-30T05:30:54;9.20;99.90
41547;DHT22;27271;45.412;10.852;2023-03-30T05:34:55;9.30;62.70
41547;DHT22;27271;45.412;10.852;2023-03-30T05:38:34;9.40;1.00
41547;DHT22;27271;45.412;10.852;2023-03-30T05:42:15;9.50;1.00
41547;DHT22;27271;45.412;10.852;2023-03-30T05:46:00;9.70;1.00
41547;DHT22;27271;45.412;10.852;2023-03-30T05:49:52;9.90;99.90
41547;DHT22;27271;45.412;10.852;2023-03-30T05:53:27;10.00;1.00
41547;DHT22;27271;45.412;10.852;2023-03-30T05:57:17;10.00;99.90
41547;DHT22;27271;45.412;10.852;2023-03-30T06:00:51;10.10;99.90
41547;DHT22;27271;45.412;10.852;2023-03-30T06:04:27;10.20;99.90
41547;DHT22;27271;45.412;10.852;2023-03-30T06:07:49;10.20;99.90
41547;DHT22;27271;45.412;10.852;2023-03-30T06:11:12;10.20;99.90
41547;DHT22;27271;45.412;10.852;2023-03-30T06:15:01;10.20;99.90
41547;DHT22;27271;45.412;10.852;2023-03-30T06:18:34;10.30;99.90
41547;DHT22;27271;45.412;10.852;2023-03-30T06:22:00;10.40;99.90
41547;DHT22;27271;45.412;10.852;2023-03-30T06:25:38;10.50;99.90
41547;DHT22;27271;45.412;10.852;2023-03-30T06:29:00;10.60;58.50
41547;DHT22;27271;45.412;10.852;2023-03-30T06:32:24;10.70;87.20
41547;DHT22;27271;45.412;10.852;2023-03-30T06:36:13;10.70;99.90
41547;DHT22;27271;45.412;10.852;2023-03-30T06:39:38;10.80;99.90
41547;DHT22;27271;45.412;10.852;2023-03-30T06:43:02;10.70;99.90
41547;DHT22;27271;45.412;10.852;2023-03-30T06:46:33;10.50;99.90
41547;DHT22;27271;45.412;10.852;2023-03-30T06:49:55;10.50;99.90
41547;DHT22;27271;45.412;10.852;2023-03-30T06:53:43;10.50;99.90
41547;DHT22;27271;45.412;10.852;2023-03-30T06:57:05;10.40;99.90
41547;DHT22;27271;45.412;10.852;2023-03-30T07:00:28;10.60;99.90
41547;DHT22;27271;45.412;10.852;2023-03-30T07:04:09;10.80;28.20
41547;DHT22;27271;45.412;10.852;2023-03-30T07:07:51;11.00;79.20
41547;DHT22;27271;45.412;10.852;2023-03-30T07:11:14;11.00;31.40
41547;DHT22;27271;45.412;10.852;2023-03-30T07:14:37;11.00;94.70
41547;DHT22;27271;45.412;10.852;2023-03-30T07:17:59;11.10;57.00
41547;DHT22;27271;45.412;10.852;2023-03-30T07:21:22;11.20;99.90
41547;DHT22;27271;45.412;10.852;2023-03-30T07:24:44;11.20;99.90
41547;DHT22;27271;45.412;10.852;2023-03-30T07:28:06;11.20;1.00
41547;DHT22;27271;45.412;10.852;2023-03-30T07:31:29;11.20;1.00
41547;DHT22;27271;45.412;10.852;2023-03-30T07:34:51;11.20;1.00
41547;DHT22;27271;45.412;10.852;2023-03-30T07:38:16;11.20;86.30
41547;DHT22;27271;45.412;10.852;2023-03-30T07:41:45;11.10;79.50
41547;DHT22;27271;45.412;10.852;2023-03-30T07:45:08;11.30;99.90
41547;DHT22;27271;45.412;10.852;2023-03-30T07:48:31;11.40;1.00
41547;DHT22;27271;45.412;10.852;2023-03-30T07:51:54;11.40;56.10
41547;DHT22;27271;45.412;10.852;2023-03-30T07:55:21;11.50;1.00
41547;DHT22;27271;45.412;10.852;2023-03-30T07:58:49;11.80;99.90
41547;DHT22;27271;45.412;10.852;2023-03-30T08:02:14;11.60;1.00
41547;DHT22;27271;45.412;10.852;2023-03-30T08:05:50;11.70;99.90
41547;DHT22;27271;45.412;10.852;2023-03-30T08:09:14;11.70;1.00
41547;DHT22;27271;45.412;10.852;2023-03-30T08:12:36;11.80;99.90
41547;DHT22;27271;45.412;10.852;2023-03-30T08:16:00;11.80;99.90
41547;DHT22;27271;45.412;10.852;2023-03-30T08:19:23;12.10;99.90
41547;DHT22;27271;45.412;10.852;2023-03-30T08:22:46;12.20;1.00
41547;DHT22;27271;45.412;10.852;2023-03-30T08:26:09;12.20;99.90
41547;DHT22;27271;45.412;10.852;2023-03-30T08:29:31;12.10;99.90
41547;DHT22;27271;45.412;10.852;2023-03-30T08:32:54;12.30;99.90
41547;DHT22;27271;45.412;10.852;2023-03-30T08:36:19;12.50;99.90
41547;DHT22;27271;45.412;10.852;2023-03-30T08:39:41;12.50;99.90
41547;DHT22;27271;45.412;10.852;2023-03-30T08:46:54;13.10;99.90
41547;DHT22;27271;45.412;10.852;2023-03-30T08:50:34;13.10;99.90
41547;DHT22;27271;45.412;10.852;2023-03-30T08:54:19;13.40;99.90
41547;DHT22;27271;45.412;10.852;2023-03-30T08:57:51;13.90;99.90
41547;DHT22;27271;45.412;10.852;2023-03-30T09:04:57;14.10;76.30
41547;DHT22;27271;45.412;10.852;2023-03-30T09:08:24;14.10;95.40
41547;DHT22;27271;45.412;10.852;2023-03-30T09:12:05;13.80;91.80
41547;DHT22;27271;45.412;10.852;2023-03-30T09:15:38;13.60;99.50
41547;DHT22;27271;45.412;10.852;2023-03-30T09:19:07;13.70;98.40
41547;DHT22;27271;45.412;10.852;2023-03-30T09:22:41;13.80;98.10
41547;DHT22;27271;45.412;10.852;2023-03-30T09:26:12;13.60;99.90
41547;DHT22;27271;45.412;10.852;2023-03-30T09:29:45;13.40;99.90
41547;DHT22;27271;45.412;10.852;2023-03-30T09:37:02;13.10;99.90
41547;DHT22;27271;45.412;10.852;2023-03-30T09:40:30;12.90;99.90
41547;DHT22;27271;45.412;10.852;2023-03-30T09:43:57;12.80;99.90
41547;DHT22;27271;45.412;10.852;2023-03-30T09:47:26;12.80;99.90
41547;DHT22;27271;45.412;10.852;2023-03-30T09:50:48;13.00;99.90
41547;DHT22;27271;45.412;10.852;2023-03-30T09:54:12;13.30;99.90
41547;DHT22;27271;45.412;10.852;2023-03-30T09:57:38;13.50;99.90
41547;DHT22;27271;45.412;10.852;2023-03-30T10:01:15;13.50;99.90
41547;DHT22;27271;45.412;10.852;2023-03-30T10:04:54;13.60;99.90
41547;DHT22;27271;45.412;10.852;2023-03-30T10:08:20;13.70;99.90
41547;DHT22;27271;45.412;10.852;2023-03-30T10:11:50;13.50;99.90
41547;DHT22;27271;45.412;10.852;2023-03-30T10:15:17;13.60;95.90
41547;DHT22;27271;45.412;10.852;2023-03-30T10:18:42;13.60;99.90
41547;DHT22;27271;45.412;10.852;2023-03-30T10:22:14;13.80;99.90
41547;DHT22;27271;45.412;10.852;2023-03-30T10:25:41;14.10;64.90
41547;DHT22;27271;45.412;10.852;2023-03-30T10:29:06;14.00;48.10
41547;DHT22;27271;45.412;10.852;2023-03-30T10:32:32;14.00;92.70
41547;DHT22;27271;45.412;10.852;2023-03-30T10:35:59;14.00;93.60
41547;DHT22;27271;45.412;10.852;2023-03-30T10:39:31;14.00;95.90
41547;DHT22;27271;45.412;10.852;2023-03-30T10:42:56;14.20;62.70
41547;DHT22;27271;45.412;10.852;2023-03-30T10:46:21;14.60;66.50
41547;DHT22;27271;45.412;10.852;2023-03-30T10:57:14;14.70;24.00
41547;DHT22;27271;45.412;10.852;2023-03-30T11:04:41;14.50;40.90
41547;DHT22;27271;45.412;10.852;2023-03-30T11:08:10;14.50;96.20
41547;DHT22;27271;45.412;10.852;2023-03-30T11:11:38;14.40;45.80
41547;DHT22;27271;45.412;10.852;2023-03-30T11:15:05;14.40;67.00
41547;DHT22;27271;45.412;10.852;2023-03-30T11:19:11;14.30;28.70
41547;DHT22;27271;45.412;10.852;2023-03-30T11:22:40;14.50;39.30
41547;DHT22;27271;45.412;10.852;2023-03-30T11:26:10;14.30;12.40
41547;DHT22;27271;45.412;10.852;2023-03-30T11:36:32;14.80;20.00
41547;DHT22;27271;45.412;10.852;2023-03-30T11:40:17;14.80;65.60
41547;DHT22;27271;45.412;10.852;2023-03-30T11:43:42;14.90;1.00
41547;DHT22;27271;45.412;10.852;2023-03-30T11:54:53;16.00;1.00
41547;DHT22;27271;45.412;10.852;2023-03-30T11:58:34;16.20;1.00
41547;DHT22;27271;45.412;10.852;2023-03-30T12:05:30;16.80;1.00
41547;DHT22;27271;45.412;10.852;2023-03-30T12:09:17;17.10;1.00
41547;DHT22;27271;45.412;10.852;2023-03-30T12:12:46;16.90;1.00
41547;DHT22;27271;45.412;10.852;2023-03-30T12:16:19;17.00;1.00
41547;DHT22;27271;45.412;10.852;2023-03-30T12:19:50;17.40;1.00
41547;DHT22;27271;45.412;10.852;2023-03-30T12:23:31;17.20;1.00
41547;DHT22;27271;45.412;10.852;2023-03-30T12:26:55;17.70;1.00
41547;DHT22;27271;45.412;10.852;2023-03-30T12:30:42;17.70;1.00
41547;DHT22;27271;45.412;10.852;2023-03-30T12:34:06;18.00;1.00
41547;DHT22;27271;45.412;10.852;2023-03-30T12:37:35;18.50;1.00
41547;DHT22;27271;45.412;10.852;2023-03-30T12:41:05;18.60;1.00
41547;DHT22;27271;45.412;10.852;2023-03-30T12:45:04;18.10;1.00
41547;DHT22;27271;45.412;10.852;2023-03-30T12:56:03;18.80;1.00
41547;DHT22;27271;45.412;10.852;2023-03-30T13:06:55;18.60;1.00
41547;DHT22;27271;45.412;10.852;2023-03-30T13:17:17;18.40;1.00
41547;DHT22;27271;45.412;10.852;2023-03-30T13:24:31;19.50;1.00
41547;DHT22;27271;45.412;10.852;2023-03-30T13:31:54;20.20;1.00
41547;DHT22;27271;45.412;10.852;2023-03-30T13:39:17;18.40;1.00
41547;DHT22;27271;45.412;10.852;2023-03-30T13:42:54;18.20;1.00
41547;DHT22;27271;45.412;10.852;2023-03-30T13:46:31;18.80;1.00
41547;DHT22;27271;45.412;10.852;2023-03-30T13:53:23;18.60;1.00
41547;DHT22;27271;45.412;10.852;2023-03-30T13:57:05;18.50;1.00
41547;DHT22;27271;45.412;10.852;2023-03-30T14:00:50;17.50;1.00
41547;DHT22;27271;45.412;10.852;2023-03-30T14:04:13;17.00;1.00
41547;DHT22;27271;45.412;10.852;2023-03-30T14:07:40;17.40;1.00
41547;DHT22;27271;45.412;10.852;2023-03-30T14:11:11;17.40;1.00
41547;DHT22;27271;45.412;10.852;2023-03-30T14:14:35;17.00;1.00
41547;DHT22;27271;45.412;10.852;2023-03-30T14:18:00;17.20;1.00
41547;DHT22;27271;45.412;10.852;2023-03-30T14:21:22;17.80;1.00
41547;DHT22;27271;45.412;10.852;2023-03-30T14:24:59;17.90;1.00
41547;DHT22;27271;45.412;10.852;2023-03-30T14:28:21;18.30;1.00
41547;DHT22;27271;45.412;10.852;2023-03-30T14:31:44;18.80;1.00
41547;DHT22;27271;45.412;10.852;2023-03-30T14:35:25;18.50;1.00
41547;DHT22;27271;45.412;10.852;2023-03-30T14:38:51;17.90;1.00
41547;DHT22;27271;45.412;10.852;2023-03-30T14:42:17;17.70;1.00
41547;DHT22;27271;45.412;10.852;2023-03-30T14:45:40;17.20;1.00
41547;DHT22;27271;45.412;10.852;2023-03-30T14:49:03;17.30;1.00
41547;DHT22;27271;45.412;10.852;2023-03-30T14:52:31;17.80;1.00
41547;DHT22;27271;45.412;10.852;2023-03-30T14:55:55;18.70;1.00
41547;DHT22;27271;45.412;10.852;2023-03-30T14:59:18;19.40;1.00
41547;DHT22;27271;45.412;10.852;2023-03-30T15:02:42;20.10;1.00
41547;DHT22;27271;45.412;10.852;2023-03-30T15:06:06;19.30;1.00
41547;DHT22;27271;45.412;10.852;2023-03-30T15:09:36;19.00;1.00
41547;DHT22;27271;45.412;10.852;2023-03-30T15:13:00;18.20;1.00
41547;DHT22;27271;45.412;10.852;2023-03-30T15:16:27;17.60;1.00
41547;DHT22;27271;45.412;10.852;2023-03-30T15:19:51;17.10;1.00
41547;DHT22;27271;45.412;10.852;2023-03-30T15:23:15;17.20;1.00
41547;DHT22;27271;45.412;10.852;2023-03-30T15:26:43;17.60;1.00
41547;DHT22;27271;45.412;10.852;2023-03-30T15:30:07;17.90;1.00
41547;DHT22;27271;45.412;10.852;2023-03-30T15:33:43;18.10;1.00
41547;DHT22;27271;45.412;10.852;2023-03-30T15:37:21;18.30;1.00
41547;DHT22;27271;45.412;10.852;2023-03-30T15:40:46;18.20;1.00
41547;DHT22;27271;45.412;10.852;2023-03-30T15:44:15;18.20;1.00
41547;DHT22;27271;45.412;10.852;2023-03-30T15:47:38;18.30;1.00
41547;DHT22;27271;45.412;10.852;2023-03-30T15:54:52;18.20;1.00
41547;DHT22;27271;45.412;10.852;2023-03-30T15:58:19;17.90;1.00
41547;DHT22;27271;45.412;10.852;2023-03-30T16:02:00;17.80;1.00
41547;DHT22;27271;45.412;10.852;2023-03-30T16:05:26;17.60;1.00
41547;DHT22;27271;45.412;10.852;2023-03-30T16:08:50;17.50;1.00
41547;DHT22;27271;45.412;10.852;2023-03-30T16:12:15;17.50;1.00
41547;DHT22;27271;45.412;10.852;2023-03-30T16:15:39;17.50;1.00
41547;DHT22;27271;45.412;10.852;2023-03-30T16:19:01;17.50;1.00
41547;DHT22;27271;45.412;10.852;2023-03-30T16:22:23;17.30;1.00
41547;DHT22;27271;45.412;10.852;2023-03-30T16:25:48;17.20;1.00
41547;DHT22;27271;45.412;10.852;2023-03-30T16:29:22;17.10;1.00
41547;DHT22;27271;45.412;10.852;2023-03-30T16:32:48;17.10;1.00
41547;DHT22;27271;45.412;10.852;2023-03-30T16:36:13;17.10;1.00
41547;DHT22;27271;45.412;10.852;2023-03-30T16:39:35;16.80;1.00
41547;DHT22;27271;45.412;10.852;2023-03-30T16:42:58;16.50;1.00
41547;DHT22;27271;45.412;10.852;2023-03-30T16:46:27;16.50;1.00
41547;DHT22;27271;45.412;10.852;2023-03-30T16:49:50;16.50;1.00
41547;DHT22;27271;45.412;10.852;2023-03-30T16:53:13;16.50;1.00
41547;DHT22;27271;45.412;10.852;2023-03-30T16:56:41;16.50;1.00
41547;DHT22;27271;45.412;10.852;2023-03-30T17:00:27;16.50;1.00
41547;DHT22;27271;45.412;10.852;2023-03-30T17:03:51;16.40;1.00
41547;DHT22;27271;45.412;10.852;2023-03-30T17:07:40;16.40;1.00
41547;DHT22;27271;45.412;10.852;2023-03-30T17:11:02;16.40;1.00
41547;DHT22;27271;45.412;10.852;2023-03-30T17:14:26;16.30;1.00
41547;DHT22;27271;45.412;10.852;2023-03-30T17:17:48;16.30;1.00
41547;DHT22;27271;45.412;10.852;2023-03-30T17:21:11;16.00;1.00
41547;DHT22;27271;45.412;10.852;2023-03-30T17:24:41;15.90;46.60
41547;DHT22;27271;45.412;10.852;2023-03-30T17:28:27;15.80;21.40
41547;DHT22;27271;45.412;10.852;2023-03-30T17:31:50;15.70;36.80
41547;DHT22;27271;45.412;10.852;2023-03-30T17:35:13;15.60;64.60
41547;DHT22;27271;45.412;10.852;2023-03-30T17:38:38;15.40;99.90
41547;DHT22;27271;45.412;10.852;2023-03-30T17:42:05;15.30;99.90
41547;DHT22;27271;45.412;10.852;2023-03-30T17:45:28;15.10;99.90
41547;DHT22;27271;45.412;10.852;2023-03-30T17:48:56;15.10;99.90
41547;DHT22;27271;45.412;10.852;2023-03-30T17:52:22;14.90;99.90
41547;DHT22;27271;45.412;10.852;2023-03-30T17:55:51;14.80;99.90
41547;DHT22;27271;45.412;10.852;2023-03-30T17:59:14;14.70;99.90
41547;DHT22;27271;45.412;10.852;2023-03-30T18:02:37;14.60;99.90
41547;DHT22;27271;45.412;10.852;2023-03-30T18:06:00;14.40;99.90
41547;DHT22;27271;45.412;10.852;2023-03-30T18:09:23;14.30;99.90
41547;DHT22;27271;45.412;10.852;2023-03-30T18:12:45;14.20;99.90
41547;DHT22;27271;45.412;10.852;2023-03-30T18:16:09;14.10;99.90
41547;DHT22;27271;45.412;10.852;2023-03-30T18:19:33;14.10;99.90
41547;DHT22;27271;45.412;10.852;2023-03-30T18:22:55;14.20;1.00
41547;DHT22;27271;45.412;10.852;2023-03-30T18:26:18;14.20;1.00
41547;DHT22;27271;45.412;10.852;2023-03-30T18:29:40;14.20;1.00
41547;DHT22;27271;45.412;10.852;2023-03-30T18:33:06;14.20;1.00
41547;DHT22;27271;45.412;10.852;2023-03-30T18:36:32;14.30;1.00
41547;DHT22;27271;45.412;10.852;2023-03-30T18:39:55;14.30;99.90
41547;DHT22;27271;45.412;10.852;2023-03-30T18:43:23;14.40;99.90
41547;DHT22;27271;45.412;10.852;2023-03-30T18:46:49;14.40;99.90
41547;DHT22;27271;45.412;10.852;2023-03-30T18:50:42;14.40;99.90
41547;DHT22;27271;45.412;10.852;2023-03-30T18:54:05;14.30;99.90
41547;DHT22;27271;45.412;10.852;2023-03-30T18:57:27;14.30;99.90
41547;DHT22;27271;45.412;10.852;2023-03-30T19:00:51;14.40;99.90
41547;DHT22;27271;45.412;10.852;2023-03-30T19:04:14;14.30;99.90
41547;DHT22;27271;45.412;10.852;2023-03-30T19:07:36;14.30;99.90
41547;DHT22;27271;45.412;10.852;2023-03-30T19:10:59;14.30;99.90
41547;DHT22;27271;45.412;10.852;2023-03-30T19:14:21;14.30;99.90
41547;DHT22;27271;45.412;10.852;2023-03-30T19:17:44;14.30;99.90
41547;DHT22;27271;45.412;10.852;2023-03-30T19:21:17;14.30;99.90
41547;DHT22;27271;45.412;10.852;2023-03-30T19:24:39;14.20;99.90
41547;DHT22;27271;45.412;10.852;2023-03-30T19:28:03;14.20;99.90
41547;DHT22;27271;45.412;10.852;2023-03-30T19:31:26;14.10;99.90
41547;DHT22;27271;45.412;10.852;2023-03-30T19:34:48;14.10;1.00
41547;DHT22;27271;45.412;10.852;2023-03-30T19:38:11;14.10;1.00
41547;DHT22;27271;45.412;10.852;2023-03-30T19:41:34;14.20;1.00
41547;DHT22;27271;45.412;10.852;2023-03-30T19:44:57;14.10;1.00
41547;DHT22;27271;45.412;10.852;2023-03-30T19:48:21;14.10;1.00
41547;DHT22;27271;45.412;10.852;2023-03-30T19:51:44;14.10;1.00
41547;DHT22;27271;45.412;10.852;2023-03-30T19:55:11;14.10;1.00
41547;DHT22;27271;45.412;10.852;2023-03-30T19:58:33;14.00;1.00
41547;DHT22;27271;45.412;10.852;2023-03-30T20:01:55;13.90;1.00
41547;DHT22;27271;45.412;10.852;2023-03-30T20:05:23;14.00;1.00
41547;DHT22;27271;45.412;10.852;2023-03-30T20:08:45;14.00;1.00
41547;DHT22;27271;45.412;10.852;2023-03-30T20:12:08;14.00;1.00
41547;DHT22;27271;45.412;10.852;2023-03-30T20:15:30;14.00;1.00
41547;DHT22;27271;45.412;10.852;2023-03-30T20:18:53;13.90;1.00
41547;DHT22;27271;45.412;10.852;2023-03-30T20:22:17;13.80;27.20
41547;DHT22;27271;45.412;10.852;2023-03-30T20:25:44;13.80;96.00
41547;DHT22;27271;45.412;10.852;2023-03-30T20:29:21;13.70;99.90
41547;DHT22;27271;45.412;10.852;2023-03-30T20:32:47;13.70;99.90
41547;DHT22;27271;45.412;10.852;2023-03-30T20:36:27;13.60;99.90
41547;DHT22;27271;45.412;10.852;2023-03-30T20:39:50;13.60;99.90
41547;DHT22;27271;45.412;10.852;2023-03-30T20:43:13;13.50;99.90
41547;DHT22;27271;45.412;10.852;2023-03-30T20:46:37;13.40;99.90
41547;DHT22;27271;45.412;10.852;2023-03-30T20:50:10;13.30;99.90
41547;DHT22;27271;45.412;10.852;2023-03-30T20:53:37;13.00;99.90
41547;DHT22;27271;45.412;10.852;2023-03-30T20:57:00;12.90;1.00
41547;DHT22;27271;45.412;10.852;2023-03-30T21:00:23;12.70;1.00
41547;DHT22;27271;45.412;10.852;2023-03-30T21:03:46;12.50;73.50
41547;DHT22;27271;45.412;10.852;2023-03-30T21:07:11;12.30;99.90
41547;DHT22;27271;45.412;10.852;2023-03-30T21:10:33;12.00;99.90
41547;DHT22;27271;45.412;10.852;2023-03-30T21:13:55;11.80;99.90
41547;DHT22;27271;45.412;10.852;2023-03-30T21:17:18;11.70;99.90
41547;DHT22;27271;45.412;10.852;2023-03-30T21:20:40;11.50;99.90
41547;DHT22;27271;45.412;10.852;2023-03-30T21:24:06;11.20;1.00
41547;DHT22;27271;45.412;10.852;2023-03-30T21:27:30;11.00;1.00
41547;DHT22;27271;45.412;10.852;2023-03-30T21:30:57;10.90;1.00
41547;DHT22;27271;45.412;10.852;2023-03-30T21:34:20;10.70;1.00
41547;DHT22;27271;45.412;10.852;2023-03-30T21:37:43;10.70;1.00
41547;DHT22;27271;45.412;10.852;2023-03-30T21:41:09;10.60;1.00
41547;DHT22;27271;45.412;10.852;2023-03-30T21:44:33;10.50;1.00
41547;DHT22;27271;45.412;10.852;2023-03-30T21:47:57;10.40;1.00
41547;DHT22;27271;45.412;10.852;2023-03-30T21:51:22;10.30;1.00
41547;DHT22;27271;45.412;10.852;2023-03-30T21:54:51;10.30;7.20
41547;DHT22;27271;45.412;10.852;2023-03-30T21:58:14;10.30;37.70
41547;DHT22;27271;45.412;10.852;2023-03-30T22:01:37;10.30;62.00
41547;DHT22;27271;45.412;10.852;2023-03-30T22:05:00;10.20;34.30
41547;DHT22;27271;45.412;10.852;2023-03-30T22:08:22;10.20;17.30
41547;DHT22;27271;45.412;10.852;2023-03-30T22:11:44;10.20;30.00
41547;DHT22;27271;45.412;10.852;2023-03-30T22:15:09;10.10;52.40
41547;DHT22;27271;45.412;10.852;2023-03-30T22:18:32;10.10;32.00
41547;DHT22;27271;45.412;10.852;2023-03-30T22:21:54;10.00;29.80
41547;DHT22;27271;45.412;10.852;2023-03-30T22:25:16;10.00;18.40
41547;DHT22;27271;45.412;10.852;2023-03-30T22:28:39;10.00;15.70
41547;DHT22;27271;45.412;10.852;2023-03-30T22:32:01;9.90;1.60
41547;DHT22;27271;45.412;10.852;2023-03-30T22:35:23;9.90;1.00
41547;DHT22;27271;45.412;10.852;2023-03-30T22:38:46;9.90;1.00
41547;DHT22;27271;45.412;10.852;2023-03-30T22:42:09;10.10;1.00
41547;DHT22;27271;45.412;10.852;2023-03-30T22:45:31;10.20;1.00
41547;DHT22;27271;45.412;10.852;2023-03-30T22:48:53;10.20;1.00
41547;DHT22;27271;45.412;10.852;2023-03-30T22:52:17;10.30;1.00
41547;DHT22;27271;45.412;10.852;2023-03-30T22:55:41;10.30;1.00
41547;DHT22;27271;45.412;10.852;2023-03-30T22:59:03;10.20;1.00
41547;DHT22;27271;45.412;10.852;2023-03-30T23:02:28;10.10;1.00
41547;DHT22;27271;45.412;10.852;2023-03-30T23:05:52;10.10;1.00
41547;DHT22;27271;45.412;10.852;2023-03-30T23:09:14;10.10;1.00
41547;DHT22;27271;45.412;10.852;2023-03-30T23:12:36;10.00;1.00
41547;DHT22;27271;45.412;10.852;2023-03-30T23:15:58;9.90;1.00
41547;DHT22;27271;45.412;10.852;2023-03-30T23:19:21;9.80;1.00
41547;DHT22;27271;45.412;10.852;2023-03-30T23:22:43;9.70;1.00
41547;DHT22;27271;45.412;10.852;2023-03-30T23:26:06;9.60;1.00
41547;DHT22;27271;45.412;10.852;2023-03-30T23:29:30;9.60;2.70
41547;DHT22;27271;45.412;10.852;2023-03-30T23:32:52;9.50;1.00
41547;DHT22;27271;45.412;10.852;2023-03-30T23:36:17;9.60;20.50
41547;DHT22;27271;45.412;10.852;2023-03-30T23:39:40;9.50;29.60
41547;DHT22;27271;45.412;10.852;2023-03-30T23:43:02;9.60;50.70
41547;DHT22;27271;45.412;10.852;2023-03-30T23:46:24;9.70;55.00
41547;DHT22;27271;45.412;10.852;2023-03-30T23:49:49;9.90;25.80
41547;DHT22;27271;45.412;10.852;2023-03-30T23:53:14;10.00;13.10
41547;DHT22;27271;45.412;10.852;2023-03-30T23:56:37;10.10;1.00
